This is the latest recevied weather packets stored in our database for station/object WA4IKQ. If no packets are shown the sender has not sent any weather packets the latest 10 day(s).
| Time | Temp. | Humidity | Pressure | Rain* | Wind** | Luminosity | Snow |
|---|---|---|---|---|---|---|---|
| 1778175467 | 33.89° C | 36% | 1015 hPa | 0 mm | 4.02 m/s, 158° | - | - |
| 1778175381 | 33.89° C | 36% | 1015 hPa | 0 mm | 4.02 m/s, 158° | - | - |
| 1778175140 | 33.89° C | 36% | 1015.1 hPa | 0 mm | 4.47 m/s, 195° | - | - |
| 1778175075 | 33.89° C | 36% | 1015.1 hPa | 0 mm | 4.47 m/s, 195° | - | - |
| 1778174950 | 33.89° C | 37% | 1015.2 hPa | 0 mm | 2.68 m/s, 169° | - | - |
| 1778174775 | 33.89° C | 37% | 1015.2 hPa | 0 mm | 2.68 m/s, 169° | - | - |
| 1778174559 | 33.89° C | 37% | 1015.2 hPa | 0 mm | 3.58 m/s, 165° | - | - |
| 1778174475 | 33.89° C | 37% | 1015.2 hPa | 0 mm | 3.58 m/s, 165° | - | - |
| 1778174226 | 33.33° C | 39% | 1015.2 hPa | 0 mm | 3.13 m/s, 159° | - | - |
| 1778174173 | 33.33° C | 39% | 1015.2 hPa | 0 mm | 3.13 m/s, 159° | - | - |
| 1778173997 | 33.33° C | 40% | 1015.1 hPa | 0 mm | 1.34 m/s, 150° | - | - |
| 1778173873 | 33.33° C | 40% | 1015.1 hPa | 0 mm | 1.34 m/s, 150° | - | - |
| 1778173679 | 33.33° C | 39% | 1015.1 hPa | 0 mm | 2.68 m/s, 176° | - | - |
| 1778173574 | 33.33° C | 39% | 1015.1 hPa | 0 mm | 2.68 m/s, 176° | - | - |
| 1778173467 | 33.33° C | 39% | 1015.2 hPa | 0 mm | 3.58 m/s, 167° | - | - |
| 1778173385 | 33.33° C | 39% | 1015.2 hPa | 0 mm | 3.58 m/s, 167° | - | - |
| 1778173274 | 33.33° C | 39% | 1015.2 hPa | 0 mm | 3.58 m/s, 167° | - | - |
| 1778173069 | 33.33° C | 40% | 1015.1 hPa | 0 mm | 4.02 m/s, 224° | - | - |
| 1778172974 | 33.33° C | 40% | 1015.1 hPa | 0 mm | 4.02 m/s, 224° | - | - |
| 1778172729 | 32.78° C | 41% | 1015 hPa | 0 mm | 1.79 m/s, 201° | - | - |
| 1778172675 | 32.78° C | 41% | 1015 hPa | 0 mm | 1.79 m/s, 201° | - | - |
| 1778172483 | 32.78° C | 41% | 1015.2 hPa | 0 mm | 3.13 m/s, 221° | - | - |
| 1778172375 | 32.78° C | 41% | 1015.2 hPa | 0 mm | 3.13 m/s, 221° | - | - |
| 1778172174 | 32.78° C | 41% | 1015.1 hPa | 0 mm | 2.24 m/s, 118° | - | - |
| 1778172072 | 32.78° C | 41% | 1015.1 hPa | 0 mm | 2.24 m/s, 118° | - | - |
* Rain latest hour (hover to see other rain measurements)
** Current wind speed in m/s (hover to see current wind gust speed)